Map

Track Data

SID SEASON NUMBER BASIN SUBBASIN NAME ISO_TIME NATURE LAT LON WMO_WIND WMO_PRES WMO_AGENCY TRACK_TYPE DIST2LAND LANDFALL IFLAG USA_AGENCY USA_ATCF_ID USA_LAT USA_LON USA_RECORD USA_STATUS USA_WIND USA_PRES USA_SSHS USA_R34_NE USA_R34_SE USA_R34_SW USA_R34_NW USA_R50_NE USA_R50_SE USA_R50_SW USA_R50_NW USA_R64_NE USA_R64_SE USA_R64_SW USA_R64_NW USA_POCI USA_ROCI USA_RMW USA_EYE TOKYO_LAT TOKYO_LON TOKYO_GRADE TOKYO_WIND TOKYO_PRES TOKYO_R50_DIR TOKYO_R50_LONG TOKYO_R50_SHORT TOKYO_R30_DIR TOKYO_R30_LONG TOKYO_R30_SHORT TOKYO_LAND CMA_LAT CMA_LON CMA_CAT CMA_WIND CMA_PRES HKO_LAT HKO_LON HKO_CAT HKO_WIND HKO_PRES NEWDELHI_LAT NEWDELHI_LON NEWDELHI_GRADE NEWDELHI_WIND NEWDELHI_PRES NEWDELHI_CI NEWDELHI_DP NEWDELHI_POCI REUNION_LAT REUNION_LON REUNION_TYPE REUNION_WIND REUNION_PRES REUNION_TNUM REUNION_CI REUNION_RMW REUNION_R34_NE REUNION_R34_SE REUNION_R34_SW REUNION_R34_NW REUNION_R50_NE REUNION_R50_SE REUNION_R50_SW REUNION_R50_NW REUNION_R64_NE REUNION_R64_SE REUNION_R64_SW REUNION_R64_NW BOM_LAT BOM_LON BOM_TYPE BOM_WIND BOM_PRES BOM_TNUM BOM_CI BOM_RMW BOM_R34_NE BOM_R34_SE BOM_R34_SW BOM_R34_NW BOM_R50_NE BOM_R50_SE BOM_R50_SW BOM_R50_NW BOM_R64_NE BOM_R64_SE BOM_R64_SW BOM_R64_NW BOM_ROCI BOM_POCI BOM_EYE BOM_POS_METHOD BOM_PRES_METHOD NADI_LAT NADI_LON NADI_CAT NADI_WIND NADI_PRES WELLINGTON_LAT WELLINGTON_LON WELLINGTON_WIND WELLINGTON_PRES DS824_LAT DS824_LON DS824_STAGE DS824_WIND DS824_PRES TD9636_LAT TD9636_LON TD9636_STAGE TD9636_WIND TD9636_PRES TD9635_LAT TD9635_LON TD9635_WIND TD9635_PRES TD9635_ROCI NEUMANN_LAT NEUMANN_LON NEUMANN_CLASS NEUMANN_WIND NEUMANN_PRES MLC_LAT MLC_LON MLC_CLASS MLC_WIND MLC_PRES USA_GUST BOM_GUST BOM_GUST_PER REUNION_GUST REUNION_GUST_PER USA_SEAHGT USA_SEARAD_NE USA_SEARAD_SE USA_SEARAD_SW USA_SEARAD_NW STORM_SPEED STORM_DIR
2022181N15115 2022 33 WP MM CHABA 2022-06-29 18:00:00 NR 15.1000 114.800 PROVISIONAL 534 511 O_____________ tcvitals WP042022 15.1000 114.800 29 995 -1 999 200 75 5 56
2022181N15115 2022 33 WP MM CHABA 2022-06-29 21:00:00 NR 15.2300 114.998 PROVISIONAL 511 486 P_____________ WP042022 15.2300 114.998 32 994 -1 999 175 80 5 52
2022181N15115 2022 33 WP MM CHABA 2022-06-30 00:00:00 NR 15.4000 115.200 PROVISIONAL 486 462 O_____________ tcvitals WP042022 15.4000 115.200 35 994 0 40 100 90 1000 150 85 6 43
2022181N15115 2022 33 WP MM CHABA 2022-06-30 03:00:00 NR 15.6475 115.395 PROVISIONAL 462 449 P_____________ WP042022 15.6475 115.395 35 994 0 90 92 999 175 85 7 26
2022181N15115 2022 33 WP MM CHABA 2022-06-30 06:00:00 NR 16.0000 115.500 PROVISIONAL 449 449 O_____________ tcvitals WP042022 16.0000 115.500 35 994 0 140 85 999 200 85 9 4
2022181N15115 2022 33 WP MM CHABA 2022-06-30 09:00:00 NR 16.4999 115.468 PROVISIONAL 451 451 P_____________ WP042022 16.4999 115.468 37 992 0 117 87 999 200 85 10 349
2022181N15115 2022 33 WP MM CHABA 2022-06-30 12:00:00 NR 17.0000 115.300 PROVISIONAL 482 482 O_____________ tcvitals WP042022 17.0000 115.300 39 991 0 95 95 90 1000 200 85 9 333
2022181N15115 2022 33 WP MM CHABA 2022-06-30 15:00:00 NR 17.3225 115.030 PROVISIONAL 494 449 P_____________ WP042022 17.3225 115.030 42 989 0 112 117 80 999 192 75 8 316
2022181N15115 2022 33 WP MM CHABA 2022-06-30 18:00:00 NR 17.6000 114.700 PROVISIONAL 449 405 O_____________ tcvitals WP042022 17.6000 114.700 45 987 0 130 140 70 110 998 185 65 9 316
2022181N15115 2022 33 WP MM CHABA 2022-06-30 21:00:00 NR 17.9425 114.392 PROVISIONAL 405 356 P_____________ WP042022 17.9425 114.392 48 986 0 117 130 82 97 998 172 65 9 321
2022181N15115 2022 33 WP MM CHABA 2022-07-01 00:00:00 NR 18.3000 114.100 PROVISIONAL 356 324 O_____________ tcvitals WP042022 18.3000 114.100 51 985 0 105 120 95 85 998 160 65 9 325
2022181N15115 2022 33 WP MM CHABA 2022-07-01 03:00:00 NR 18.6574 113.857 PROVISIONAL 320 280 P_____________ WP042022 18.6574 113.857 52 983 0 132 152 142 105 999 205 55 8 326
2022181N15115 2022 33 WP MM CHABA 2022-07-01 06:00:00 NR 19.0000 113.600 PROVISIONAL 280 243 O_____________ tcvitals WP042022 19.0000 113.600 54 982 0 160 185 190 126 1000 250 45 9 320
2022181N15115 2022 33 WP MM CHABA 2022-07-01 09:00:00 NR 19.3150 113.272 PROVISIONAL 243 199 P_____________ WP042022 19.3150 113.272 57 980 0 160 185 190 126 1000 250 45 9 312
2022181N15115 2022 33 WP MM CHABA 2022-07-01 12:00:00 NR 19.6000 112.900 PROVISIONAL 199 158 O_____________ tcvitals WP042022 19.6000 112.900 60 979 0 160 185 190 126 1000 250 45 9 306
2022181N15115 2022 33 WP MM CHABA 2022-07-01 15:00:00 NR 19.8576 112.485 PROVISIONAL 160 127 P_____________ WP042022 19.8576 112.485 62 977 0 157 165 145 130 999 230 40 9 304
2022181N15115 2022 33 WP MM CHABA 2022-07-01 18:00:00 NR 20.1000 112.100 PROVISIONAL 127 104 O_____________ tcvitals WP042022 20.1000 112.100 64 975 1 155 145 100 135 998 210 35 8 308
2022181N15115 2022 33 WP MM CHABA 2022-07-01 21:00:00 NR 20.3424 111.820 PROVISIONAL 104 94 P_____________ WP042022 20.3424 111.820 69 972 1 150 142 100 130 998 212 32 7 317
2022181N15115 2022 33 WP MM CHABA 2022-07-02 00:00:00 NR 20.6000 111.600 PROVISIONAL 94 56 O_____________ tcvitals WP042022 20.6000 111.600 74 969 1 145 140 100 126 999 215 30 7 323
2022181N15115 2022 33 WP MM CHABA 2022-07-02 03:00:00 NR 20.8775 111.392 PROVISIONAL 56 24 P_____________ WP042022 20.8775 111.392 72 969 1 152 152 127 115 999 215 30 7 328
2022181N15115 2022 33 WP MM CHABA 2022-07-02 06:00:00 NR 21.2000 111.200 PROVISIONAL 24 0 O_____________ tcvitals WP042022 21.2000 111.200 70 969 1 160 165 155 105 999 215 30 8 333
2022181N15115 2022 33 WP MM CHABA 2022-07-02 09:00:00 NR 21.5826 111.003 PROVISIONAL 0 0 P_____________ WP042022 21.5826 111.003 60 976 0 155 165 142 102 997 195 32 9 335
2022181N15115 2022 33 WP MM CHABA 2022-07-02 12:00:00 NR 22.0000 110.800 PROVISIONAL 0 O_____________ tcvitals WP042022 22.0000 110.800 51 983 0 150 165 130 100 996 175 35 9 336

Digital Typhoon Data and Search

About IBTrACS Database

This database is a web-friendly format of International Best Track Archive for Climate Stewardship (IBTrACS), a global best track data archive curated by NOAA dating back to 1842.

Updated: 2022-08-18